Latest Weather Observations for Roseworthy

IDS60801

Issued at 4:02 pm CDT Tuesday 27 January 2015 (issued every 30 minutes, with the page automatically refreshed every 10 minutes)

About weather observations | Map of weather stations | Latest weather observations for SA | Other Formats
Station Details ID: 023122 Name: ROSEWORTHY AWS Lat: -34.51 Lon: 138.68 Height: 65.0 m
Data from the previous 72 hours. | See also: Recent months at Roseworthy
Date/Time
CDT
Temp
°C
App
Temp
°C
Dew
Point
Rel
Hum
%
Delta-T
°C
Wind Press
QNH
hPa
Press
MSL
hPa
Rain
since 9 am
mm
Dir
 
Spd
km/h
Gust
km/h
Spd
kts
Gust
kts
27/04:00pm 24.6 20.1 4.4 27 10.1 SE 17 26 9 14 1014.5 - 0.0
27/03:30pm 24.3 18.8 4.1 27 10.0 SSE 22 30 12 16 1014.7 - 0.0
27/03:00pm 23.4 18.9 4.4 29 9.4 ESE 17 32 9 17 1015.0 1014.8 0.0
27/02:30pm 23.0 18.5 4.0 29 9.3 SSE 17 26 9 14 1015.5 - 0.0
27/02:00pm 22.7 18.2 4.2 30 9.1 SE 17 30 9 16 1015.6 - 0.0
27/01:30pm 23.1 18.1 4.6 30 9.2 SSE 20 35 11 19 1015.7 - 0.0
27/01:00pm 22.9 18.1 4.4 30 9.1 S 19 26 10 14 1016.1 - 0.0
27/12:30pm 21.6 17.8 3.8 31 8.6 SSE 13 28 7 15 1016.4 - 0.0
27/12:00pm 20.6 16.0 3.8 33 8.0 S 17 26 9 14 1016.9 1016.7 0.0
27/11:30am 19.9 15.7 3.6 34 7.8 SSE 15 24 8 13 1017.1 - 0.0
27/11:00am 20.9 16.9 4.9 35 7.8 SE 15 26 8 14 1017.4 - 0.0
27/10:30am 19.6 15.6 4.9 38 7.2 SE 15 26 8 14 1017.6 - 0.0
27/10:00am 18.8 14.2 5.6 42 6.5 SE 19 30 10 16 1017.8 - 0.0
27/09:30am 18.0 12.9 6.2 46 5.8 ESE 22 32 12 17 1017.9 - 0.0
27/09:00am 16.7 11.1 5.6 48 5.4 ESE 24 35 13 19 1017.9 1017.7 0.0
27/08:30am 15.6 9.8 6.1 53 4.6 ESE 26 33 14 18 1017.8 - 0.0
27/08:00am 14.8 9.9 6.9 59 3.9 ESE 22 32 12 17 1017.9 - 0.0
27/07:30am 13.5 9.2 7.1 65 3.1 SE 19 26 10 14 1017.7 - 0.0
27/07:00am 12.4 9.6 6.9 69 2.6 ESE 11 17 6 9 1017.5 - 0.0
27/06:30am 11.7 8.9 6.8 72 2.3 SE 11 17 6 9 1017.4 - 0.0
27/06:00am 11.4 9.2 6.3 71 2.4 SE 7 13 4 7 1017.0 1016.8 0.0
27/05:30am 11.6 9.4 6.3 70 2.5 SE 7 11 4 6 1016.7 - 0.0
27/05:00am 11.6 8.7 6.7 72 2.3 SE 11 15 6 8 1016.4 - 0.0
27/04:30am 11.4 9.3 8.1 80 1.6 SE 9 15 5 8 1016.4 - 0.0
27/04:00am 9.7 8.2 6.6 81 1.5 SSE 4 9 2 5 1016.4 - 0.0
27/03:30am 9.0 7.6 5.7 80 1.5 ESE 2 7 1 4 1016.4 - 0.0
27/03:00am 9.3 7.0 5.9 79 1.6 SE 7 9 4 5 1016.5 1016.3 0.0
27/02:30am 10.0 7.9 6.0 76 1.9 SE 6 7 3 4 1016.8 - 0.0
27/02:00am 9.1 7.9 4.5 73 2.0 CALM 0 0 0 0 1016.9 - 0.0
27/01:30am 10.7 8.8 6.5 75 2.0 SE 6 7 3 4 1017.2 - 0.0
27/01:00am 10.0 7.6 5.4 73 2.1 SSE 7 9 4 5 1017.3 - 0.0
27/12:30am 11.8 9.6 5.4 65 3.0 SSE 6 7 3 4 1017.5 - 0.0
27/12:00am 12.9 10.3 6.3 64 3.1 S 9 11 5 6 1017.7 1017.5 0.0
 
Date/Time
CDT
Temp
°C
App
Temp
°C
Dew
Point
Rel
Hum
%
Delta-T
°C
Wind Press
QNH
hPa
Press
MSL
hPa
Rain
since 9 am
mm
Dir
 
Spd
km/h
Gust
km/h
Spd
kts
Gust
kts
26/11:30pm 13.4 10.8 6.3 62 3.4 S 9 11 5 6 1017.8 - 0.0
26/11:00pm 14.4 11.2 6.7 60 3.7 SSE 13 17 7 9 1017.8 - 0.0
26/10:30pm 14.9 11.6 6.2 56 4.2 S 13 19 7 10 1017.7 - 0.0
26/10:00pm 15.7 11.9 5.9 52 4.7 SSE 15 24 8 13 1017.5 - 0.0
26/09:30pm 16.2 11.5 5.2 48 5.3 SSE 19 28 10 15 1017.2 - 0.0
26/09:00pm 16.7 11.8 5.0 46 5.6 SE 20 28 11 15 1016.8 1016.6 0.0
26/08:30pm 17.7 12.4 5.0 43 6.1 SE 22 30 12 16 1016.5 - 0.0
26/08:00pm 19.1 14.0 4.1 37 7.2 SE 20 32 11 17 1016.0 - 0.0
26/07:30pm 20.7 16.6 4.3 34 8.0 SE 15 20 8 11 1015.7 - 0.0
26/07:00pm 21.7 16.9 4.7 33 8.4 SSE 19 24 10 13 1015.4 - 0.0
26/06:30pm 21.6 17.7 5.5 35 8.0 SE 15 20 8 11 1015.1 - 0.0
26/06:00pm 21.8 17.9 5.3 34 8.2 S 15 24 8 13 1015.1 1014.9 0.0
26/05:30pm 21.1 16.4 5.1 35 7.9 SSW 19 30 10 16 1015.1 - 0.0
26/05:00pm 20.8 16.6 5.6 37 7.6 SW 17 24 9 13 1015.5 - 0.0
26/04:30pm 20.8 16.6 5.6 37 7.6 SSW 17 26 9 14 1015.7 - 0.0
26/04:00pm 21.5 16.8 6.2 37 7.7 SW 20 30 11 16 1015.8 - 0.0
26/03:30pm 21.0 16.2 5.8 37 7.6 SSW 20 30 11 16 1015.9 - 0.0
26/03:00pm 21.3 16.1 5.6 36 7.8 SSW 22 33 12 18 1016.1 1015.9 0.0
26/02:30pm 20.9 16.5 4.5 34 8.0 S 17 30 9 16 1016.2 - 0.0
26/02:00pm 20.5 15.3 5.7 38 7.4 SW 22 33 12 18 1016.4 - 0.0
26/01:30pm 20.0 15.9 6.4 41 6.8 WSW 17 22 9 12 1016.7 - 0.0
26/01:00pm 19.5 15.9 5.2 39 7.0 SW 13 20 7 11 1016.9 - 0.0
26/12:30pm 20.1 16.7 6.1 40 7.0 SSW 13 24 7 13 1017.1 - 0.0
26/12:00pm 18.7 15.0 6.5 45 6.1 S 15 20 8 11 1017.3 1017.1 0.0
26/11:30am 18.6 15.5 7.4 48 5.7 SSE 13 20 7 11 1017.5 - 0.0
26/11:00am 18.1 15.4 7.2 49 5.5 SE 11 20 6 11 1017.6 - 0.0
26/10:30am 18.1 15.1 7.5 50 5.4 SE 13 19 7 10 1017.7 - 0.0
26/10:00am 17.7 14.2 8.6 55 4.7 ESE 17 26 9 14 1017.9 - 0.0
26/09:30am 17.3 14.0 7.9 54 4.8 SE 15 22 8 12 1017.9 - 0.0
26/09:00am 16.8 14.9 7.4 54 4.7 S 7 13 4 7 1018.0 1017.8 0.0
26/08:30am 16.7 15.0 7.6 55 4.6 S 6 9 3 5 1018.0 - 0.0
26/08:00am 16.0 15.4 7.5 57 4.2 CALM 0 0 0 0 1017.6 - 0.0
26/07:30am 14.9 12.9 7.2 60 3.8 N 7 9 4 5 1017.3 - 0.0
26/07:00am 13.8 11.5 7.3 65 3.2 N 9 13 5 7 1017.0 - 0.0
26/06:30am 13.1 11.6 6.7 65 3.1 NNW 4 6 2 3 1016.7 - 0.0
26/06:00am 13.9 11.9 7.0 63 3.4 NNW 7 9 4 5 1016.7 1016.5 0.0
26/05:30am 14.1 12.1 6.9 62 3.5 NNW 7 11 4 6 1016.3 - 0.0
26/05:00am 14.2 12.1 6.8 61 3.6 NNW 7 9 4 5 1016.2 - 0.0
26/04:30am 14.1 12.0 6.7 61 3.6 N 7 9 4 5 1015.9 - 0.0
26/04:00am 14.0 13.3 6.8 62 3.5 CALM 0 0 0 0 1015.8 - 0.0
26/03:30am 14.0 13.2 6.4 60 3.7 CALM 0 0 0 0 1015.7 - 0.0
26/03:00am 13.9 13.1 6.3 60 3.6 CALM 0 6 0 3 1015.6 1015.4 0.0
26/02:30am 14.6 13.7 6.2 57 4.0 CALM 0 2 0 1 1015.6 - 0.0
26/02:00am 13.7 12.5 6.3 61 3.5 SSE 2 7 1 4 1015.8 - 0.0
26/01:30am 13.3 11.0 5.9 61 3.5 ESE 7 9 4 5 1015.7 - 0.0
26/01:00am 14.5 11.8 5.6 55 4.2 SE 9 11 5 6 1016.0 - 0.0
26/12:30am 15.1 11.7 5.9 54 4.4 SSE 13 17 7 9 1016.2 - 0.0
26/12:00am 15.0 11.5 5.5 53 4.5 SSE 13 17 7 9 1016.3 1016.1 0.0
 
Date/Time
CDT
Temp
°C
App
Temp
°C
Dew
Point
Rel
Hum
%
Delta-T
°C
Wind Press
QNH
hPa
Press
MSL
hPa
Rain
since 9 am
mm
Dir
 
Spd
km/h
Gust
km/h
Spd
kts
Gust
kts
25/11:30pm 15.1 11.9 5.0 51 4.8 SSE 11 17 6 9 1016.2 - 0.0
25/11:00pm 15.2 11.6 4.9 50 4.9 S 13 19 7 10 1016.1 - 0.0
25/10:30pm 15.8 11.8 4.8 48 5.2 SSE 15 20 8 11 1015.9 - 0.0
25/10:00pm 16.1 11.7 4.5 46 5.5 S 17 26 9 14 1015.5 - 0.0
25/09:30pm 16.5 11.9 5.5 48 5.3 SSW 19 26 10 14 1015.1 - 0.0
25/09:00pm 16.7 11.9 4.7 45 5.7 SW 19 24 10 13 1014.6 1014.4 0.0
25/08:30pm 17.3 11.9 4.6 43 6.0 SW 22 33 12 18 1014.3 - 0.0
25/08:00pm 18.2 12.5 5.1 42 6.3 SW 24 32 13 17 1014.1 - 0.0
25/07:30pm 19.0 13.5 6.1 43 6.4 SW 24 35 13 19 1013.9 - 0.0
25/07:00pm 19.5 13.7 6.3 42 6.6 SW 26 35 14 19 1013.8 - 0.0
25/06:30pm 19.4 13.8 7.2 45 6.2 SW 26 35 14 19 1013.5 - 0.0
25/06:00pm 19.7 14.3 7.8 46 6.1 SW 26 37 14 20 1013.6 1013.3 0.0
25/05:30pm 21.8 16.1 6.9 38 7.6 SSW 26 35 14 19 1013.3 - 0.0
25/05:00pm 21.2 14.9 5.9 37 7.7 SSW 28 39 15 21 1013.2 - 0.0
25/04:30pm 21.1 14.3 5.1 35 7.9 SW 30 48 16 26 1013.3 - 0.0
25/04:23pm 21.5 14.8 5.4 35 8.0 SW 30 48 16 26 1013.2 - 0.0
25/04:00pm 21.1 15.1 5.5 36 7.8 SW 26 39 14 21 1013.7 - 0.0
25/03:30pm 20.8 13.4 4.0 33 8.1 SSW 32 43 17 23 1013.5 - 0.0
25/03:00pm 20.9 14.0 4.5 34 8.0 SW 30 41 16 22 1013.8 1013.5 0.0
25/02:30pm 21.0 13.8 5.0 35 7.9 SSW 32 46 17 25 1014.0 - 0.0
25/02:15pm 21.5 14.9 6.2 37 7.7 SW 30 48 16 26 1014.0 - 0.0
25/02:00pm 20.7 13.4 4.3 34 8.0 SW 32 44 17 24 1014.0 - 0.0
25/01:30pm 20.5 12.9 2.8 31 8.3 SW 32 43 17 23 1014.1 - 0.0
25/01:13pm 20.9 13.4 3.6 32 8.3 SSW 32 54 17 29 1013.9 - 0.0
25/01:00pm 20.4 13.5 4.4 35 7.8 SW 30 44 16 24 1014.0 - 0.0
25/12:30pm 19.9 13.3 5.9 40 7.0 SW 30 43 16 23 1013.9 - 0.0
25/12:00pm 19.9 13.5 7.0 43 6.6 SW 30 44 16 24 1013.9 1013.6 0.0
25/11:30am 19.3 13.1 6.1 42 6.6 SW 28 37 15 20 1013.9 - 0.0
25/11:00am 19.2 13.0 4.2 37 7.2 SW 26 35 14 19 1013.9 - 0.0
25/10:30am 19.1 13.2 4.1 37 7.2 SW 24 35 13 19 1013.5 - 0.0
25/10:00am 17.8 12.2 5.4 44 6.0 SW 24 32 13 17 1013.5 - 0.0
25/09:30am 17.9 11.8 6.4 47 5.7 SW 28 39 15 21 1012.9 - 0.0
25/09:00am 18.1 12.2 7.5 50 5.4 WSW 28 35 15 19 1012.8 1012.5 0.0
25/08:30am 18.0 13.5 6.2 46 5.8 WSW 19 24 10 13 1012.9 - 0.0
25/08:00am 17.0 12.8 5.6 47 5.5 SW 17 22 9 12 1012.4 - 0.0
25/07:30am 15.4 12.5 6.4 55 4.4 SW 11 15 6 8 1012.0 - 0.0
25/07:00am 14.0 11.3 7.5 65 3.2 SSW 11 13 6 7 1011.6 - 0.0
25/06:30am 13.6 11.0 7.6 67 3.0 SSW 11 13 6 7 1011.1 - 0.0
25/06:00am 14.3 11.5 7.1 62 3.5 SSW 11 13 6 7 1010.7 1010.4 0.0
25/05:30am 15.7 13.1 7.7 59 4.0 SW 11 15 6 8 1010.3 - 0.0
25/05:00am 15.6 13.4 7.9 60 3.9 SW 9 13 5 7 1010.0 - 0.0
25/04:30am 14.9 12.4 8.2 64 3.4 SW 11 13 6 7 1009.9 - 0.0
25/04:00am 15.9 12.7 8.4 61 3.8 SW 15 20 8 11 1009.8 - 0.0
25/03:30am 16.3 13.2 9.0 62 3.8 SSW 15 20 8 11 1009.7 - 0.0
25/03:00am 16.8 13.2 9.7 63 3.7 SW 19 28 10 15 1009.6 1009.3 0.0
25/02:30am 16.8 13.0 9.7 63 3.7 SW 20 28 11 15 1009.6 - 0.0
25/02:00am 17.1 12.8 10.9 67 3.3 SW 24 33 13 18 1009.7 - 0.0
25/01:30am 17.6 13.8 11.2 66 3.5 SW 22 33 12 18 1009.7 - 0.0
25/01:00am 17.5 13.6 10.9 65 3.6 SW 22 32 12 17 1009.6 - 0.0
25/12:30am 17.6 13.6 11.8 69 3.2 WSW 24 35 13 19 1009.6 - 0.0
25/12:00am 18.0 14.7 12.7 71 3.0 WSW 22 30 12 16 1009.6 1009.3 0.0
 
Date/Time
CDT
Temp
°C
App
Temp
°C
Dew
Point
Rel
Hum
%
Delta-T
°C
Wind Press
QNH
hPa
Press
MSL
hPa
Rain
since 9 am
mm
Dir
 
Spd
km/h
Gust
km/h
Spd
kts
Gust
kts
24/11:30pm 18.3 14.8 12.3 68 3.3 SW 22 33 12 18 1009.6 - 0.0
24/11:00pm 18.9 15.1 12.4 66 3.6 WSW 24 37 13 20 1009.5 - 0.0
24/10:30pm 18.9 15.9 13.7 72 3.0 SW 22 32 12 17 1009.4 - 0.0
24/10:00pm 20.1 14.8 11.1 56 4.9 WSW 30 43 16 23 1008.9 - 0.0
24/09:30pm 20.7 15.5 11.6 56 5.1 W 30 39 16 21 1008.4 - 0.0
24/09:00pm 21.0 17.0 11.9 56 5.1 W 24 35 13 19 1007.9 1007.6 0.0
24/08:30pm 20.5 17.4 12.2 59 4.7 WSW 20 28 11 15 1007.6 - 0.0
24/08:00pm 21.3 18.8 12.4 57 5.0 SW 17 24 9 13 1007.5 - 0.0
24/07:30pm 22.4 17.9 11.5 50 6.1 SW 26 33 14 18 1007.1 - 0.0
24/07:00pm 23.5 18.0 10.6 44 7.2 WSW 30 39 16 21 1006.9 - 0.0
24/06:30pm 24.2 18.4 9.4 39 8.1 W 30 44 16 24 1006.5 - 0.0
24/06:00pm 24.4 19.1 9.9 40 8.0 WSW 28 41 15 22 1006.6 1006.4 0.0
24/05:30pm 23.9 18.7 10.2 42 7.6 WSW 28 39 15 21 1006.8 - 0.0
24/05:00pm 24.1 18.9 10.4 42 7.6 WSW 28 44 15 24 1006.8 - 0.0
24/04:30pm 25.1 18.9 9.4 37 8.6 W 32 48 17 26 1006.7 - 0.0

Other Formats:

Comma delimited format used in spreadsheet applications
http://www.bom.gov.au/fwo/IDS60801/IDS60801.95671.axf

JavaScript Object Notation format (JSON) in row-major order
http://www.bom.gov.au/fwo/IDS60801/IDS60801.95671.json